Time;durP1;ratioP1;P1;durP2;ratioP2;P2;SDS_P1;SDS_P2;PMS_P1;PMS_P2;Temp;Humidity;BMP_temperature;BMP_pressure;BME280_temperature;BME280_humidity;BME280_pressure;Samples;Min_cycle;Max_cycle;Signal;HPM_P1;HPM_P2
2020/12/06 00:01:25;;;;;;;28.47;20.43;;;;;;;8.35;64.86;98463.57;2162637;82;21117;-82
2020/12/06 00:04:27;;;;;;;29.83;19.73;;;;;;;8.03;66.00;98463.93;2162335;82;21516;-80
2020/12/06 00:07:29;;;;;;;28.83;18.87;;;;;;;7.79;67.98;98460.90;2162345;82;21217;-80
2020/12/06 00:10:30;;;;;;;28.27;19.60;;;;;;;7.62;67.83;98451.09;2162506;82;21201;-82
2020/12/06 00:13:31;;;;;;;33.07;21.10;;;;;;;7.50;68.63;98450.89;2162328;82;21131;-80
2020/12/06 00:16:32;;;;;;;32.07;19.80;;;;;;;7.40;68.99;98449.40;2162418;82;21261;-78
2020/12/06 00:19:33;;;;;;;29.47;19.47;;;;;;;7.30;69.90;98441.87;2162489;82;21233;-80
2020/12/06 00:22:34;;;;;;;34.17;21.23;;;;;;;7.23;69.93;98448.67;2162682;82;21075;-80
2020/12/06 00:25:35;;;;;;;32.83;20.10;;;;;;;7.19;70.48;98440.80;2162217;82;21274;-79
2020/12/06 00:28:36;;;;;;;28.77;20.57;;;;;;;7.15;71.07;98439.86;2161783;82;21154;-79
2020/12/06 00:31:37;;;;;;;28.70;20.23;;;;;;;7.13;71.67;98440.26;2152567;82;21393;-80
2020/12/06 00:34:39;;;;;;;32.25;20.70;;;;;;;7.10;71.59;98437.60;2152172;82;21119;-80
2020/12/06 00:37:40;;;;;;;28.47;18.87;;;;;;;7.08;71.17;98435.83;2152176;82;21396;-80
2020/12/06 00:40:41;;;;;;;27.13;18.97;;;;;;;7.05;71.77;98426.69;2152489;83;21420;-80
2020/12/06 00:43:42;;;;;;;25.17;17.83;;;;;;;7.05;72.18;98428.86;2152610;82;21087;-80
2020/12/06 00:46:44;;;;;;;33.30;19.80;;;;;;;7.09;72.70;98437.58;2152478;82;21131;-80
2020/12/06 00:49:45;;;;;;;25.47;18.17;;;;;;;7.09;72.75;98431.09;2152464;83;21409;-80
2020/12/06 00:52:46;;;;;;;29.47;19.13;;;;;;;7.09;72.75;98431.09;2152469;82;21393;-81
2020/12/06 00:55:47;;;;;;;29.07;19.67;;;;;;;7.09;72.33;98442.77;2152418;82;21158;-81
2020/12/06 00:58:48;;;;;;;24.47;17.60;;;;;;;7.09;72.33;98442.77;2152321;82;21122;-82
2020/12/06 01:01:49;;;;;;;26.10;18.13;;;;;;;7.07;72.29;98440.14;2152535;82;21429;-81
2020/12/06 01:04:50;;;;;;;25.70;18.30;;;;;;;7.06;72.95;98444.00;2152389;82;21260;-79
2020/12/06 01:07:51;;;;;;;113.57;79.53;;;;;;;7.03;73.29;98440.50;2152607;82;21140;-79
2020/12/06 01:10:53;;;;;;;106.53;75.57;;;;;;;7.76;75.73;98441.36;2152534;82;21123;-79
2020/12/06 01:13:53;;;;;;;48.17;32.63;;;;;;;12.15;66.35;98438.56;2152374;82;21386;-80
2020/12/06 01:16:55;;;;;;;26.57;19.00;;;;;;;13.75;59.26;98432.28;2152236;82;21425;-81
2020/12/06 01:19:56;;;;;;;27.90;18.73;;;;;;;11.64;58.58;98442.42;2152437;82;21115;-81
2020/12/06 01:22:57;;;;;;;25.07;17.67;;;;;;;10.19;61.11;98444.34;2152362;82;21115;-80
2020/12/06 01:25:58;;;;;;;24.33;18.13;;;;;;;9.23;63.65;98442.17;2152289;82;21405;-81
2020/12/06 01:28:59;;;;;;;25.00;19.93;;;;;;;8.62;65.29;98448.34;2152328;82;21167;-81
2020/12/06 01:32:00;;;;;;;23.50;15.30;;;;;;;8.18;66.58;98457.66;2152458;83;21098;-79
2020/12/06 01:35:01;;;;;;;25.93;18.23;;;;;;;7.88;69.14;98461.09;2152289;83;21472;-81
2020/12/06 01:38:02;;;;;;;27.87;18.50;;;;;;;7.67;69.59;98458.55;2152374;83;21119;-80
2020/12/06 01:41:04;;;;;;;25.17;18.33;;;;;;;7.52;70.27;98464.77;2152268;83;21131;-80
2020/12/06 01:44:05;;;;;;;29.10;18.60;;;;;;;7.39;70.03;98465.83;2152421;82;21425;-80
2020/12/06 01:47:06;;;;;;;24.37;17.77;;;;;;;7.27;70.33;98472.54;2152441;83;21119;-80
2020/12/06 01:50:07;;;;;;;24.90;17.73;;;;;;;7.22;70.59;98474.59;2138545;83;21119;-80
2020/12/06 01:53:08;;;;;;;24.73;17.73;;;;;;;7.16;71.36;98462.37;2153240;83;21242;-80
2020/12/06 01:56:11;;;;;;;24.10;18.17;;;;;;;7.13;71.18;98479.61;2152734;83;21433;-81
2020/12/06 01:59:12;;;;;;;22.07;16.97;;;;;;;7.10;72.08;98476.53;2152622;83;21119;-81
2020/12/06 02:02:13;;;;;;;23.60;18.00;;;;;;;7.07;72.29;98483.38;2152535;83;21119;-80
2020/12/06 02:05:14;;;;;;;27.80;19.27;;;;;;;7.05;72.51;98481.19;2152399;83;21139;-80
2020/12/06 02:08:15;;;;;;;24.33;18.00;;;;;;;7.00;72.10;98490.17;2152293;83;21088;-81
2020/12/06 02:11:20;;;;;;;25.43;18.63;;;;;;;6.95;72.35;98481.42;2152552;83;21142;-83
2020/12/06 02:14:21;;;;;;;26.30;17.87;;;;;;;6.90;72.11;98481.30;2152239;83;21119;-80
2020/12/06 02:17:26;;;;;;;24.50;16.87;;;;;;;6.89;72.59;98481.27;2152615;83;21425;-80
2020/12/06 02:20:27;;;;;;;20.60;16.83;;;;;;;6.89;72.96;98483.44;2152404;83;21115;-81
2020/12/06 02:23:28;;;;;;;24.00;17.60;;;;;;;6.89;73.31;98483.86;2152281;83;21123;-81
2020/12/06 02:26:29;;;;;;;26.73;17.47;;;;;;;6.87;73.79;98482.95;2152372;83;21135;-81
2020/12/06 02:29:30;;;;;;;24.93;17.00;;;;;;;6.84;74.09;98488.08;2152168;82;21429;-82
2020/12/06 02:32:31;;;;;;;25.67;16.97;;;;;;;6.83;73.68;98472.93;2152532;83;21115;-81
2020/12/06 02:35:35;;;;;;;21.40;15.60;;;;;;;6.79;73.85;98452.08;2152503;83;21119;-79
2020/12/06 02:38:36;;;;;;;248.50;168.47;;;;;;;6.82;74.80;98464.70;2152299;83;21131;-79
2020/12/06 02:41:39;;;;;;;35.93;26.30;;;;;;;11.59;65.79;98455.05;2152412;83;21107;-81
2020/12/06 02:44:40;;;;;;;23.80;18.03;;;;;;;13.15;62.12;98448.78;2152321;82;21389;-81
2020/12/06 02:47:41;;;;;;;22.37;17.67;;;;;;;11.35;60.42;98454.13;2152290;83;21127;-80
2020/12/06 02:50:42;;;;;;;20.70;16.20;;;;;;;9.92;62.52;98461.09;2152262;83;21109;-81
2020/12/06 02:53:43;;;;;;;24.57;18.50;;;;;;;8.99;64.78;98462.72;2152179;83;21143;-80
2020/12/06 02:56:44;;;;;;;26.07;17.37;;;;;;;8.35;66.45;98468.34;2152286;83;21187;-81
2020/12/06 02:59:48;;;;;;;22.37;16.33;;;;;;;7.93;67.75;98471.13;2152396;83;21150;-80
2020/12/06 03:02:49;;;;;;;19.33;16.43;;;;;;;7.63;68.21;98481.84;2152458;82;21409;-81
2020/12/06 03:05:53;;;;;;;23.97;17.30;;;;;;;7.39;69.27;98480.98;2152459;83;21123;-81
2020/12/06 03:08:56;;;;;;;23.03;17.70;;;;;;;7.21;70.17;98480.21;2152501;83;21107;-81
2020/12/06 03:11:57;;;;;;;25.53;17.43;;;;;;;7.07;70.38;98489.88;2152542;83;21122;-81
2020/12/06 03:14:59;;;;;;;19.07;15.67;;;;;;;6.91;71.60;98487.36;2152432;83;21127;-82
2020/12/06 03:18:00;;;;;;;19.37;15.43;;;;;;;6.82;71.82;98479.39;2152651;83;21130;-82
2020/12/06 03:21:01;;;;;;;22.73;16.90;;;;;;;6.74;72.24;98477.93;2152618;83;21119;-83
2020/12/06 03:24:02;;;;;;;23.40;16.70;;;;;;;6.67;72.15;98479.52;2152402;83;21146;-80
2020/12/06 03:27:03;;;;;;;18.53;15.00;;;;;;;6.61;72.73;98475.92;2152714;82;21119;-82
2020/12/06 03:30:04;;;;;;;23.87;17.57;;;;;;;6.55;73.49;98482.27;2158260;82;21162;-81
2020/12/06 03:33:05;;;;;;;23.80;15.37;;;;;;;6.47;72.91;98477.34;2165323;82;21115;-82
2020/12/06 03:36:06;;;;;;;26.13;17.57;;;;;;;6.47;72.91;98477.34;2165139;82;21162;-83
2020/12/06 03:39:07;;;;;;;21.70;16.57;;;;;;;6.41;74.40;98477.20;2163068;82;21360;-83
2020/12/06 03:42:09;;;;;;;21.60;15.37;;;;;;;6.41;74.40;98477.20;2162631;82;21266;-82
2020/12/06 03:45:10;;;;;;;20.50;15.93;;;;;;;6.34;74.35;98474.47;2162638;82;21384;-83
2020/12/06 03:48:11;;;;;;;20.80;15.93;;;;;;;6.31;74.22;98476.13;2162598;82;21118;-81
2020/12/06 03:51:12;;;;;;;25.93;16.93;;;;;;;6.27;74.12;98471.28;2162832;82;21107;-82
2020/12/06 03:54:13;;;;;;;23.17;16.67;;;;;;;6.26;74.54;98473.84;2162664;82;21281;-83
2020/12/06 03:57:16;;;;;;;22.17;16.53;;;;;;;6.22;74.86;98475.91;2162853;82;21166;-81
2020/12/06 04:00:21;;;;;;;21.77;15.77;;;;;;;6.21;74.95;98475.45;2162620;82;21119;-82
2020/12/06 04:03:20;;;;;;;20.60;15.70;;;;;;;6.20;75.16;98483.65;2162465;82;21127;-81
2020/12/06 04:06:21;;;;;;;23.00;15.40;;;;;;;6.16;75.61;98475.34;2162389;82;21241;-82
2020/12/06 04:09:22;;;;;;;23.20;17.67;;;;;;;6.15;75.62;98481.38;2162069;82;21449;-81
2020/12/06 04:12:24;;;;;;;25.30;17.47;;;;;;;6.15;75.18;98479.20;2162217;82;21229;-82
2020/12/06 04:15:25;;;;;;;19.70;15.47;;;;;;;6.13;75.64;98476.58;2162607;82;21409;-83
2020/12/06 04:18:26;;;;;;;24.07;16.43;;;;;;;6.11;76.01;98476.95;2162808;82;21114;-82
2020/12/06 04:21:27;;;;;;;21.87;15.87;;;;;;;6.09;75.86;98474.75;2162585;82;21397;-82
2020/12/06 04:24:28;;;;;;;23.33;17.53;;;;;;;6.08;76.32;98480.77;2162616;82;21241;-82
2020/12/06 04:27:29;;;;;;;20.40;15.87;;;;;;;6.04;75.65;98482.80;2162849;82;21412;-82
2020/12/06 04:30:30;;;;;;;20.03;15.73;;;;;;;6.00;75.93;98488.33;2165776;82;21157;-82
2020/12/06 04:33:31;;;;;;;22.60;15.23;;;;;;;5.98;76.31;98490.01;2168658;82;21103;-83
2020/12/06 04:36:32;;;;;;;21.27;15.20;;;;;;;5.94;75.73;98488.60;2163447;82;21251;-83
2020/12/06 04:39:33;;;;;;;20.97;15.63;;;;;;;5.92;76.17;98488.98;2162344;82;21138;-83
2020/12/06 04:42:34;;;;;;;21.77;15.47;;;;;;;5.88;76.91;98486.70;2162664;82;21499;-84
2020/12/06 04:45:38;;;;;;;26.20;16.67;;;;;;;5.87;76.00;98495.73;2162151;82;21230;-81
2020/12/06 04:48:39;;;;;;;23.30;17.43;;;;;;;5.84;76.37;98488.77;2162261;82;21136;-81
2020/12/06 04:51:40;;;;;;;23.07;16.47;;;;;;;5.80;76.98;98485.64;2162552;82;21228;-82
2020/12/06 04:54:41;;;;;;;20.20;15.30;;;;;;;5.76;76.98;98490.28;2160554;82;21245;-82
2020/12/06 04:57:42;;;;;;;19.47;15.10;;;;;;;5.74;76.97;98488.95;2161663;82;21146;-83
2020/12/06 05:00:43;;;;;;;21.53;15.97;;;;;;;5.72;77.07;98497.11;2161828;82;21249;-83
2020/12/06 05:03:44;;;;;;;20.53;15.80;;;;;;;5.68;76.92;98503.05;2162227;82;21119;-83
2020/12/06 05:06:45;;;;;;;19.50;16.03;;;;;;;5.67;76.86;98503.00;2161757;82;21153;-82
2020/12/06 05:09:46;;;;;;;19.33;14.40;;;;;;;5.62;76.97;98510.66;2161956;82;21122;-82
2020/12/06 05:12:47;;;;;;;27.27;16.90;;;;;;;5.61;77.26;98508.90;2162292;82;21229;-83
2020/12/06 05:15:48;;;;;;;22.53;15.70;;;;;;;5.60;77.27;98501.09;2162568;82;21135;-82
2020/12/06 05:18:52;;;;;;;22.00;15.43;;;;;;;5.58;77.45;98501.05;2162638;82;21269;-81
2020/12/06 05:21:53;;;;;;;22.00;16.97;;;;;;;5.58;77.25;98504.94;2162418;82;21249;-80
2020/12/06 05:24:54;;;;;;;26.10;18.13;;;;;;;5.55;77.61;98502.27;2161823;82;21249;-82
2020/12/06 05:27:55;;;;;;;26.10;17.17;;;;;;;5.54;77.48;98497.05;2162513;82;21227;-83
2020/12/06 05:31:00;;;;;;;22.67;16.87;;;;;;;5.51;77.87;98503.45;2156727;81;21157;-83
2020/12/06 05:34:00;;;;;;;22.60;16.90;;;;;;;5.48;77.51;98504.66;2152043;83;21416;-82
2020/12/06 05:37:01;;;;;;;24.03;17.67;;;;;;;5.43;77.70;98501.53;2152228;83;21154;-83
2020/12/06 05:40:02;;;;;;;25.60;18.63;;;;;;;5.41;78.21;98505.80;2152560;83;21114;-83
2020/12/06 05:43:03;;;;;;;26.80;16.87;;;;;;;5.36;78.08;98505.21;2152641;82;21139;-82
2020/12/06 05:46:04;;;;;;;39.17;26.07;;;;;;;5.34;78.67;98507.76;2151734;83;21453;-80
2020/12/06 05:49:05;;;;;;;37.93;25.13;;;;;;;5.33;78.19;98505.13;2152043;83;21123;-81
2020/12/06 05:52:06;;;;;;;30.97;20.30;;;;;;;5.31;77.98;98507.67;2152132;83;21151;-81
2020/12/06 05:55:07;;;;;;;24.23;16.83;;;;;;;5.31;78.12;98510.68;2151958;83;21088;-80
2020/12/06 05:58:08;;;;;;;30.80;21.27;;;;;;;5.29;78.73;98497.70;2152214;83;21142;-81
2020/12/06 06:01:09;;;;;;;26.73;18.03;;;;;;;5.29;79.00;98509.77;2152128;83;21123;-82
2020/12/06 06:04:10;;;;;;;21.90;15.90;;;;;;;5.27;78.70;98514.89;2151713;83;21258;-79
2020/12/06 06:07:11;;;;;;;23.13;17.07;;;;;;;5.73;78.57;98511.80;2151948;83;21118;-81
2020/12/06 06:10:12;;;;;;;25.33;18.23;;;;;;;5.64;77.55;98519.34;2151400;83;21147;-81
2020/12/06 06:13:13;;;;;;;23.37;16.43;;;;;;;5.52;78.08;98528.50;2150835;83;21476;-80
2020/12/06 06:16:14;;;;;;;25.63;17.80;;;;;;;5.42;78.03;98524.78;2151261;83;21186;-80
2020/12/06 06:19:15;;;;;;;22.40;15.50;;;;;;;5.35;78.12;98531.93;2152545;83;21147;-81
2020/12/06 06:22:16;;;;;;;24.90;18.10;;;;;;;5.30;78.81;98524.04;2152689;83;21095;-80
2020/12/06 06:25:21;;;;;;;474.20;352.67;;;;;;;5.29;78.17;98529.17;2152225;83;21088;-81
2020/12/06 06:28:22;;;;;;;497.27;361.20;;;;;;;5.95;83.34;98527.92;2152893;83;21115;-83
2020/12/06 06:31:23;;;;;;;72.53;46.17;;;;;;;9.88;70.50;98515.37;2152731;82;21171;-80
2020/12/06 06:34:30;;;;;;;24.00;17.40;;;;;;;11.36;67.49;98520.33;2152671;83;21119;-80
2020/12/06 06:37:31;;;;;;;24.80;16.60;;;;;;;9.95;64.21;98514.56;2152612;83;21162;-79
2020/12/06 06:40:32;;;;;;;24.80;16.83;;;;;;;8.39;66.68;98519.98;2152612;83;21123;-80
2020/12/06 06:43:33;;;;;;;24.90;17.40;;;;;;;7.34;69.57;98524.16;2152923;83;21111;-81
2020/12/06 06:46:34;;;;;;;21.83;15.83;;;;;;;6.72;71.53;98523.71;2152721;83;21127;-80
2020/12/06 06:49:35;;;;;;;23.63;16.80;;;;;;;6.33;72.84;98522.39;2152438;83;21118;-80
2020/12/06 06:52:36;;;;;;;23.30;16.70;;;;;;;6.10;73.78;98529.63;2152303;83;21131;-80
2020/12/06 06:55:41;;;;;;;26.03;17.63;;;;;;;5.93;75.23;98523.13;2152665;83;21186;-83
2020/12/06 06:58:42;;;;;;;;;;;;;;;5.82;74.91;98540.08;2155508;83;21119;-80
2020/12/06 07:01:43;;;;;;;23.53;16.77;;;;;;;5.77;75.84;98541.25;2152335;83;20155;-80
2020/12/06 07:04:44;;;;;;;281.63;223.83;;;;;;;5.75;75.55;98533.44;2151636;83;21112;-81
2020/12/06 07:07:45;;;;;;;716.33;537.27;;;;;;;5.99;78.08;98526.73;2151892;83;21139;-81
2020/12/06 07:10:47;;;;;;;28.27;18.07;;;;;;;9.76;64.58;98511.34;2152181;83;21127;-78
2020/12/06 07:13:48;;;;;;;23.10;16.43;;;;;;;9.76;64.58;98511.34;2152083;83;21115;-79
2020/12/06 07:16:49;;;;;;;20.50;15.93;;;;;;;8.44;66.91;98512.70;2152368;83;21171;-79
2020/12/06 07:19:50;;;;;;;19.13;15.03;;;;;;;7.68;68.92;98514.85;2152727;83;21084;-79
2020/12/06 07:22:52;;;;;;;21.90;15.83;;;;;;;7.25;70.26;98508.41;2152551;83;21269;-80
2020/12/06 07:25:53;;;;;;;20.57;16.03;;;;;;;6.96;71.00;98511.30;2152465;83;21238;-78
2020/12/06 07:28:54;;;;;;;544.17;401.43;;;;;;;6.89;72.73;98513.70;2152495;83;21177;-81
2020/12/06 07:31:55;;;;;;;46.63;32.17;;;;;;;11.20;64.18;98497.59;2154716;82;21155;-78
2020/12/06 07:34:56;;;;;;;26.27;16.33;;;;;;;11.01;60.77;98502.73;2155798;82;21142;-79
2020/12/06 07:37:58;;;;;;;20.03;15.70;;;;;;;9.65;63.28;98517.75;2155792;82;21389;-79
2020/12/06 07:40:59;;;;;;;18.33;14.43;;;;;;;8.79;65.32;98517.13;2155771;83;21123;-80
2020/12/06 07:44:00;;;;;;;21.60;15.17;;;;;;;8.19;66.88;98525.71;2155454;82;21071;-79
2020/12/06 07:47:01;;;;;;;17.60;12.90;;;;;;;7.83;68.05;98527.27;2157596;82;21396;-79
2020/12/06 07:50:02;;;;;;;21.27;14.63;;;;;;;7.68;69.00;98536.06;2175124;82;21086;-80
2020/12/06 07:53:03;;;;;;;17.87;14.37;;;;;;;7.59;69.10;98547.16;2173623;82;21135;-78
2020/12/06 07:56:04;;;;;;;17.83;12.50;;;;;;;7.61;69.32;98551.08;2162234;82;21186;-79
2020/12/06 07:59:05;;;;;;;18.77;13.47;;;;;;;7.63;69.70;98547.66;2162228;82;21111;-79
2020/12/06 08:02:06;;;;;;;18.00;14.47;;;;;;;7.64;69.58;98542.05;2161551;82;21237;-79
2020/12/06 08:05:08;;;;;;;19.13;14.43;;;;;;;7.64;69.75;98545.52;2162267;82;21123;-80
2020/12/06 08:08:09;;;;;;;14.50;12.57;;;;;;;7.70;69.75;98554.27;2162665;82;21127;-80
2020/12/06 08:11:10;;;;;;;15.37;12.97;;;;;;;7.66;70.04;98546.42;2162729;82;21261;-83
2020/12/06 08:14:15;;;;;;;14.93;11.77;;;;;;;7.70;70.06;98539.98;2162699;82;21233;-79
2020/12/06 08:17:17;;;;;;;17.70;13.07;;;;;;;7.73;70.01;98540.03;2162291;82;21305;-79
2020/12/06 08:20:20;;;;;;;18.10;13.53;;;;;;;7.74;69.88;98538.77;2162696;82;21199;-79
2020/12/06 08:23:21;;;;;;;18.73;13.40;;;;;;;7.75;70.11;98548.73;2162162;82;21208;-78
2020/12/06 08:26:22;;;;;;;16.67;12.30;;;;;;;7.76;69.94;98553.95;2162381;82;21273;-79
2020/12/06 08:29:26;;;;;;;17.50;12.23;;;;;;;7.76;69.83;98546.59;2162655;82;21221;-79
2020/12/06 08:32:27;;;;;;;21.53;14.20;;;;;;;7.73;69.97;98557.80;2170158;82;21169;-81
2020/12/06 08:35:28;;;;;;;16.97;12.80;;;;;;;7.75;69.93;98542.23;2164319;82;21431;-80
2020/12/06 08:38:29;;;;;;;20.87;13.00;;;;;;;7.82;69.94;98548.91;2162083;82;21299;-79
2020/12/06 08:41:37;;;;;;;14.63;11.53;;;;;;;7.91;69.75;98550.38;2162258;82;21249;-78
2020/12/06 08:44:38;;;;;;;14.60;11.73;;;;;;;8.03;69.48;98554.91;2162289;82;21110;-78
2020/12/06 08:47:47;;;;;;;14.80;12.57;;;;;;;8.20;69.38;98565.16;2162300;82;21225;-79
2020/12/06 08:50:48;;;;;;;13.10;11.70;;;;;;;8.40;68.99;98564.22;2162243;82;21241;-80
2020/12/06 08:53:49;;;;;;;12.73;10.53;;;;;;;8.55;68.25;98548.84;2162665;82;21539;-79
2020/12/06 08:56:50;;;;;;;13.97;10.90;;;;;;;8.60;67.32;98538.08;2162647;82;21285;-80
2020/12/06 08:59:51;;;;;;;13.70;12.00;;;;;;;8.63;67.64;98545.05;2162504;82;21210;-79
2020/12/06 09:02:52;;;;;;;726.20;524.27;;;;;;;8.69;67.65;98536.08;2162909;82;21154;-79
2020/12/06 09:05:53;;;;;;;70.90;47.73;;;;;;;10.68;66.05;98541.28;2162749;82;21234;-79
2020/12/06 09:08:54;;;;;;;20.10;15.47;;;;;;;13.46;59.03;98530.80;2162414;82;21118;-78
2020/12/06 09:11:56;;;;;;;15.23;12.28;;;;;;;12.61;56.77;98531.86;2161971;82;21523;-78
2020/12/06 09:14:57;;;;;;;15.68;12.55;;;;;;;11.42;58.00;98522.53;2161968;82;21284;-79
2020/12/06 09:17:58;;;;;;;16.85;13.75;;;;;;;10.69;60.00;98524.77;2162462;82;21278;-79
2020/12/06 09:20:59;;;;;;;16.97;12.70;;;;;;;10.08;61.07;98529.89;2162337;82;21515;-79
2020/12/06 09:24:00;;;;;;;14.60;12.80;;;;;;;9.77;62.43;98531.34;2161850;82;21239;-79
2020/12/06 09:27:01;;;;;;;15.47;13.73;;;;;;;9.66;63.04;98525.14;2162038;82;21253;-79
2020/12/06 09:30:03;;;;;;;14.67;12.33;;;;;;;9.60;63.47;98531.59;2162064;82;21258;-79
2020/12/06 09:33:04;;;;;;;15.40;12.03;;;;;;;9.56;63.55;98526.34;2171555;82;21276;-79
2020/12/06 09:36:05;;;;;;;16.33;12.60;;;;;;;9.42;63.77;98517.48;2175034;82;21268;-79
2020/12/06 09:39:06;;;;;;;15.57;11.57;;;;;;;9.37;64.20;98516.55;2174575;81;21539;-79
2020/12/06 09:42:07;;;;;;;14.13;11.63;;;;;;;9.41;64.35;98517.03;2175131;82;21094;-79
2020/12/06 09:45:08;;;;;;;15.23;12.47;;;;;;;9.40;64.00;98504.86;2162016;82;21368;-78
2020/12/06 09:48:09;;;;;;;624.73;488.87;;;;;;;9.39;64.45;98507.02;2162345;82;21132;-79
2020/12/06 09:51:13;;;;;;;354.30;280.43;;;;;;;10.46;64.78;98485.90;2162928;82;21109;-78
2020/12/06 09:54:14;;;;;;;24.43;15.47;;;;;;;14.23;53.34;98482.22;2162219;82;21229;-79
2020/12/06 09:57:15;;;;;;;14.03;11.10;;;;;;;13.70;54.05;98476.03;2162288;82;21293;-79
2020/12/06 10:00:16;;;;;;;14.10;10.53;;;;;;;12.30;55.58;98490.89;2162171;82;21249;-80
2020/12/06 10:03:18;;;;;;;13.32;10.98;;;;;;;11.53;57.43;98483.79;2161967;82;21031;-79
2020/12/06 10:06:19;;;;;;;11.70;10.10;;;;;;;10.92;58.51;98479.63;2161743;82;21245;-79
2020/12/06 10:09:20;;;;;;;12.28;10.98;;;;;;;10.49;59.72;98484.61;2162376;82;21122;-79
2020/12/06 10:12:21;;;;;;;15.20;11.08;;;;;;;10.23;60.48;98477.01;2162110;82;21245;-79
2020/12/06 10:15:22;;;;;;;12.82;10.85;;;;;;;10.03;61.14;98474.22;2161847;82;21245;-78
2020/12/06 10:18:23;;;;;;;22.97;17.37;;;;;;;9.92;61.87;98467.61;2162491;82;21265;-80
2020/12/06 10:21:24;;;;;;;13.97;11.30;;;;;;;9.89;62.01;98466.28;2162182;82;21241;-79
2020/12/06 10:24:30;;;;;;;11.47;9.80;;;;;;;9.84;62.35;98456.24;2162347;82;21245;-79
2020/12/06 10:27:31;;;;;;;14.37;9.70;;;;;;;9.83;62.46;98446.67;2162237;81;21147;-80
2020/12/06 10:30:32;;;;;;;11.73;9.85;;;;;;;9.84;62.64;98453.20;2162317;82;21249;-79
2020/12/06 10:33:33;;;;;;;14.50;10.33;;;;;;;9.84;62.53;98444.52;2152805;81;21158;-80
2020/12/06 10:36:34;;;;;;;12.53;10.73;;;;;;;9.79;62.95;98437.95;2152077;83;21183;-78
2020/12/06 10:39:35;;;;;;;13.80;11.13;;;;;;;9.74;62.81;98433.56;2152470;83;21160;-79
2020/12/06 10:42:36;;;;;;;15.20;10.57;;;;;;;9.70;62.99;98434.40;2152150;83;21385;-78
2020/12/06 10:45:37;;;;;;;12.43;10.97;;;;;;;9.57;62.87;98437.33;2151650;83;21095;-80
2020/12/06 10:48:38;;;;;;;14.83;11.07;;;;;;;9.43;63.23;98431.08;2151385;83;21111;-79
2020/12/06 10:51:39;;;;;;;13.93;11.00;;;;;;;9.38;63.46;98443.19;2151167;83;21421;-79
2020/12/06 10:54:40;;;;;;;12.50;10.93;;;;;;;9.35;63.63;98441.42;2152085;83;21111;-79
2020/12/06 10:57:44;;;;;;;16.15;10.48;;;;;;;9.32;63.94;98439.22;2151968;83;21277;-79
2020/12/06 11:00:45;;;;;;;15.17;11.90;;;;;;;9.27;63.91;98431.36;2151950;83;21111;-79
2020/12/06 11:03:46;;;;;;;12.13;10.80;;;;;;;9.27;64.13;98431.36;2151417;83;21091;-79
2020/12/06 11:06:47;;;;;;;13.77;9.90;;;;;;;9.24;63.97;98427.42;2151284;83;21122;-79
2020/12/06 11:09:48;;;;;;;15.00;10.23;;;;;;;9.18;64.15;98420.41;2151959;83;21307;-79
2020/12/06 11:12:52;;;;;;;12.60;10.47;;;;;;;9.22;64.30;98422.19;2151985;83;21122;-79
2020/12/06 11:15:53;;;;;;;12.90;10.60;;;;;;;9.21;64.19;98419.14;2151906;83;21393;-79
2020/12/06 11:18:54;;;;;;;12.57;10.00;;;;;;;9.28;64.29;98416.17;2152294;83;21242;-79
2020/12/06 11:21:55;;;;;;;13.57;10.30;;;;;;;9.36;64.12;98417.13;2152169;83;21091;-81
2020/12/06 11:24:56;;;;;;;11.87;9.50;;;;;;;9.42;64.22;98416.30;2152864;83;21147;-79
2020/12/06 11:27:59;;;;;;;11.20;9.97;;;;;;;9.44;63.69;98419.80;2152158;82;21134;-78
2020/12/06 11:31:00;;;;;;;11.37;9.37;;;;;;;9.49;63.91;98412.90;2152354;82;21119;-78
2020/12/06 11:34:04;;;;;;;12.57;9.97;;;;;;;9.50;63.79;98417.25;2165255;82;21700;-78
2020/12/06 11:37:05;;;;;;;12.47;10.63;;;;;;;9.51;63.63;98418.56;2162303;82;21261;-79
2020/12/06 11:40:06;;;;;;;13.67;10.80;;;;;;;9.51;63.86;98419.88;2162339;82;21115;-79
2020/12/06 11:43:07;;;;;;;12.93;10.63;;;;;;;9.57;63.68;98419.09;2162563;82;21123;-79
2020/12/06 11:46:08;;;;;;;13.57;10.43;;;;;;;9.57;63.47;98419.96;2162445;82;21397;-79
2020/12/06 11:49:09;;;;;;;10.33;9.30;;;;;;;9.56;63.55;98420.81;2162803;82;21127;-79
2020/12/06 11:52:10;;;;;;;11.37;10.17;;;;;;;9.54;63.52;98412.55;2162968;82;21118;-78
2020/12/06 11:55:11;;;;;;;11.63;9.33;;;;;;;9.49;63.37;98424.63;2162448;82;21135;-78
2020/12/06 11:58:12;;;;;;;14.80;10.37;;;;;;;9.44;63.47;98418.50;2162667;82;21280;-78
2020/12/06 12:01:14;;;;;;;12.80;10.33;;;;;;;9.43;63.56;98427.17;2162586;82;21241;-79
2020/12/06 12:04:15;;;;;;;11.83;10.57;;;;;;;9.44;63.49;98424.58;2162459;82;21261;-79
2020/12/06 12:07:18;;;;;;;11.30;10.07;;;;;;;9.36;63.51;98421.03;2162317;82;21257;-78
2020/12/06 12:10:19;;;;;;;11.33;9.73;;;;;;;9.39;63.71;98407.16;2162640;82;21103;-79
2020/12/06 12:13:20;;;;;;;11.93;9.07;;;;;;;9.32;63.34;98397.11;2162726;82;21142;-79
2020/12/06 12:16:23;;;;;;;13.00;10.73;;;;;;;9.34;63.29;98397.12;2162466;82;21154;-79
2020/12/06 12:19:24;;;;;;;10.30;8.87;;;;;;;9.33;63.52;98396.69;2162817;82;21241;-80
2020/12/06 12:22:25;;;;;;;11.40;9.73;;;;;;;9.31;63.43;98401.00;2162691;82;21258;-79
2020/12/06 12:25:27;;;;;;;10.33;9.23;;;;;;;9.24;63.27;98398.77;2162764;82;21147;-79
2020/12/06 12:28:28;;;;;;;10.90;9.77;;;;;;;9.21;63.51;98394.83;2162882;82;21119;-79
2020/12/06 12:31:31;;;;;;;10.87;9.47;;;;;;;9.19;63.58;98399.16;2163344;82;21507;-80
2020/12/06 12:34:32;;;;;;;12.13;9.17;;;;;;;9.18;63.43;98389.16;2173031;82;21106;-79
2020/12/06 12:37:33;;;;;;;11.53;9.20;;;;;;;9.15;63.43;98380.45;2174154;82;21471;-79
2020/12/06 12:40:40;;;;;;;10.33;7.80;;;;;;;9.15;63.70;98373.52;2168519;82;21246;-79
2020/12/06 12:43:41;;;;;;;11.60;8.93;;;;;;;9.17;63.67;98367.02;2163309;82;21138;-79
2020/12/06 12:46:44;;;;;;;14.07;10.37;;;;;;;9.12;63.79;98365.67;2162768;82;21233;-79
2020/12/06 12:49:45;;;;;;;11.27;9.27;;;;;;;8.98;63.56;98344.27;2162866;82;21083;-79
2020/12/06 12:52:48;;;;;;;16.80;10.23;;;;;;;8.80;63.95;98367.94;2162598;82;21111;-79
2020/12/06 12:55:49;;;;;;;11.80;9.07;;;;;;;8.64;64.20;98363.37;2162847;82;21285;-80
2020/12/06 12:58:51;;;;;;;10.43;9.27;;;;;;;8.54;64.55;98361.52;2162444;82;21233;-79
2020/12/06 13:01:52;;;;;;;9.53;8.30;;;;;;;8.47;64.72;98368.80;2163141;82;21126;-80
2020/12/06 13:04:53;;;;;;;12.67;8.57;;;;;;;8.35;64.91;98376.45;2162770;82;21118;-79
2020/12/06 13:07:54;;;;;;;9.83;8.47;;;;;;;8.23;65.15;98376.70;2162418;82;21241;-80
2020/12/06 13:10:55;;;;;;;10.93;8.73;;;;;;;8.18;65.20;98361.89;2162899;82;21122;-79
2020/12/06 13:13:59;;;;;;;441.83;312.70;;;;;;;8.08;65.37;98378.22;2163034;82;21111;-80
2020/12/06 13:17:01;;;;;;;;;;;;;;;10.05;65.22;98357.33;2165563;82;21176;-81
2020/12/06 13:20:02;;;;;;;18.00;10.53;;;;;;;12.42;57.30;98356.94;2162998;82;20402;-80
2020/12/06 13:23:03;;;;;;;12.00;9.47;;;;;;;11.54;55.75;98366.60;2163041;82;21091;-79
2020/12/06 13:26:04;;;;;;;12.17;9.00;;;;;;;10.15;57.57;98380.42;2162946;82;21244;-80
2020/12/06 13:29:05;;;;;;;11.33;8.87;;;;;;;9.22;59.70;98386.16;2162857;82;21493;-80
2020/12/06 13:32:06;;;;;;;11.03;9.00;;;;;;;8.54;61.42;98379.73;2164984;82;21253;-81
2020/12/06 13:35:07;;;;;;;11.93;9.30;;;;;;;8.13;63.17;98382.63;2173022;82;21130;-80
2020/12/06 13:38:11;;;;;;;11.63;9.40;;;;;;;7.81;63.84;98392.98;2170710;82;21159;-78
2020/12/06 13:41:12;;;;;;;11.77;9.47;;;;;;;7.55;64.50;98390.80;2163159;82;21110;-80
2020/12/06 13:44:15;;;;;;;11.93;9.07;;;;;;;7.38;65.63;98402.63;2162894;82;21424;-80
2020/12/06 13:47:16;;;;;;;10.60;8.27;;;;;;;7.11;66.37;98409.93;2162568;82;21499;-80
2020/12/06 13:50:17;;;;;;;10.37;8.80;;;;;;;7.11;66.37;98409.93;2162909;81;21118;-83
2020/12/06 13:53:19;;;;;;;11.57;8.93;;;;;;;6.92;66.85;98408.67;2162892;82;21268;-80
2020/12/06 13:56:20;;;;;;;10.20;7.70;;;;;;;6.76;66.80;98424.78;2162887;82;21220;-80
2020/12/06 13:59:21;;;;;;;11.07;8.90;;;;;;;6.52;67.47;98423.86;2162872;82;21146;-82
2020/12/06 14:02:24;;;;;;;10.73;9.10;;;;;;;6.52;67.47;98423.86;2162616;82;21083;-81
2020/12/06 14:05:25;;;;;;;10.23;8.17;;;;;;;6.44;68.00;98422.83;2162269;82;21110;-80